sensor_id;sensor_type;location;lat;lon;timestamp;P1;durP1;ratioP1;P2;durP2;ratioP2
75005;SDS011;63553;51.814;4.600;2023-03-01T00:01:20;1.80;;;1.70;;
75005;SDS011;63553;51.814;4.600;2023-03-01T00:03:47;1.70;;;1.60;;
75005;SDS011;63553;51.814;4.600;2023-03-01T00:06:14;1.60;;;1.50;;
75005;SDS011;63553;51.814;4.600;2023-03-01T00:08:39;1.80;;;1.70;;
75005;SDS011;63553;51.814;4.600;2023-03-01T00:11:15;1.63;;;1.52;;
75005;SDS011;63553;51.814;4.600;2023-03-01T00:13:42;2.08;;;1.40;;
75005;SDS011;63553;51.814;4.600;2023-03-01T00:16:10;1.92;;;1.67;;
75005;SDS011;63553;51.814;4.600;2023-03-01T00:18:37;1.42;;;1.30;;
75005;SDS011;63553;51.814;4.600;2023-03-01T00:21:03;2.03;;;1.30;;
75005;SDS011;63553;51.814;4.600;2023-03-01T00:23:29;1.85;;;1.52;;
75005;SDS011;63553;51.814;4.600;2023-03-01T00:25:54;1.50;;;1.40;;
75005;SDS011;63553;51.814;4.600;2023-03-01T00:28:20;1.40;;;1.30;;
75005;SDS011;63553;51.814;4.600;2023-03-01T00:30:46;1.45;;;1.35;;
75005;SDS011;63553;51.814;4.600;2023-03-01T00:33:11;1.80;;;1.70;;
75005;SDS011;63553;51.814;4.600;2023-03-01T00:35:36;1.70;;;1.60;;
75005;SDS011;63553;51.814;4.600;2023-03-01T00:38:02;1.60;;;1.50;;
75005;SDS011;63553;51.814;4.600;2023-03-01T00:40:29;1.65;;;1.50;;
75005;SDS011;63553;51.814;4.600;2023-03-01T00:42:57;1.40;;;1.30;;
75005;SDS011;63553;51.814;4.600;2023-03-01T00:45:22;1.77;;;1.42;;
75005;SDS011;63553;51.814;4.600;2023-03-01T00:47:49;1.30;;;1.20;;
75005;SDS011;63553;51.814;4.600;2023-03-01T00:50:15;1.50;;;1.40;;
75005;SDS011;63553;51.814;4.600;2023-03-01T00:52:41;1.35;;;1.25;;
75005;SDS011;63553;51.814;4.600;2023-03-01T00:55:06;2.00;;;1.30;;
75005;SDS011;63553;51.814;4.600;2023-03-01T00:57:32;1.48;;;1.30;;
75005;SDS011;63553;51.814;4.600;2023-03-01T00:59:58;1.58;;;1.48;;
75005;SDS011;63553;51.814;4.600;2023-03-01T01:02:23;1.48;;;1.38;;
75005;SDS011;63553;51.814;4.600;2023-03-01T01:04:48;2.43;;;1.40;;
75005;SDS011;63553;51.814;4.600;2023-03-01T01:07:14;1.83;;;1.73;;
75005;SDS011;63553;51.814;4.600;2023-03-01T01:09:40;1.50;;;1.40;;
75005;SDS011;63553;51.814;4.600;2023-03-01T01:12:06;1.25;;;1.25;;
75005;SDS011;63553;51.814;4.600;2023-03-01T01:14:31;1.35;;;1.27;;
75005;SDS011;63553;51.814;4.600;2023-03-01T01:16:57;1.10;;;1.10;;
75005;SDS011;63553;51.814;4.600;2023-03-01T01:19:23;1.42;;;1.33;;
75005;SDS011;63553;51.814;4.600;2023-03-01T01:21:48;1.80;;;1.35;;
75005;SDS011;63553;51.814;4.600;2023-03-01T01:24:15;1.70;;;1.60;;
75005;SDS011;63553;51.814;4.600;2023-03-01T01:26:41;1.40;;;1.30;;
75005;SDS011;63553;51.814;4.600;2023-03-01T01:29:07;1.50;;;1.40;;
75005;SDS011;63553;51.814;4.600;2023-03-01T01:31:34;1.40;;;1.30;;
75005;SDS011;63553;51.814;4.600;2023-03-01T01:34:01;1.27;;;1.17;;
75005;SDS011;63553;51.814;4.600;2023-03-01T01:36:27;2.25;;;1.45;;
75005;SDS011;63553;51.814;4.600;2023-03-01T01:38:53;1.48;;;1.30;;
75005;SDS011;63553;51.814;4.600;2023-03-01T01:41:18;1.60;;;1.50;;
75005;SDS011;63553;51.814;4.600;2023-03-01T01:43:46;1.40;;;1.30;;
75005;SDS011;63553;51.814;4.600;2023-03-01T01:48:48;1.45;;;1.35;;
75005;SDS011;63553;51.814;4.600;2023-03-01T01:51:23;1.10;;;1.10;;
75005;SDS011;63553;51.814;4.600;2023-03-01T01:53:53;1.55;;;1.45;;
75005;SDS011;63553;51.814;4.600;2023-03-01T01:56:24;1.35;;;1.25;;
75005;SDS011;63553;51.814;4.600;2023-03-01T01:58:53;1.52;;;1.42;;
75005;SDS011;63553;51.814;4.600;2023-03-01T02:01:20;1.60;;;1.50;;
75005;SDS011;63553;51.814;4.600;2023-03-01T02:03:46;1.88;;;1.42;;
75005;SDS011;63553;51.814;4.600;2023-03-01T02:06:15;1.48;;;1.23;;
75005;SDS011;63553;51.814;4.600;2023-03-01T02:08:46;1.48;;;1.38;;
75005;SDS011;63553;51.814;4.600;2023-03-01T02:11:14;1.40;;;1.30;;
75005;SDS011;63553;51.814;4.600;2023-03-01T02:13:40;1.50;;;1.40;;
75005;SDS011;63553;51.814;4.600;2023-03-01T02:16:10;1.25;;;1.15;;
75005;SDS011;63553;51.814;4.600;2023-03-01T02:18:38;1.70;;;1.60;;
75005;SDS011;63553;51.814;4.600;2023-03-01T02:23:37;1.50;;;1.40;;
75005;SDS011;63553;51.814;4.600;2023-03-01T02:26:08;1.33;;;1.23;;
75005;SDS011;63553;51.814;4.600;2023-03-01T02:28:43;1.73;;;1.40;;
75005;SDS011;63553;51.814;4.600;2023-03-01T02:31:10;1.25;;;1.10;;
75005;SDS011;63553;51.814;4.600;2023-03-01T02:33:57;1.35;;;1.30;;
75005;SDS011;63553;51.814;4.600;2023-03-01T02:36:24;1.20;;;1.10;;
75005;SDS011;63553;51.814;4.600;2023-03-01T02:38:56;1.40;;;1.30;;
75005;SDS011;63553;51.814;4.600;2023-03-01T02:43:51;2.10;;;1.40;;
75005;SDS011;63553;51.814;4.600;2023-03-01T02:46:20;1.38;;;1.27;;
75005;SDS011;63553;51.814;4.600;2023-03-01T02:48:49;2.47;;;1.30;;
75005;SDS011;63553;51.814;4.600;2023-03-01T02:56:38;1.65;;;1.35;;
75005;SDS011;63553;51.814;4.600;2023-03-01T02:59:03;2.17;;;1.30;;
75005;SDS011;63553;51.814;4.600;2023-03-01T03:01:29;1.27;;;1.27;;
75005;SDS011;63553;51.814;4.600;2023-03-01T03:04:04;1.40;;;1.30;;
75005;SDS011;63553;51.814;4.600;2023-03-01T03:06:35;2.63;;;1.33;;
75005;SDS011;63553;51.814;4.600;2023-03-01T03:09:01;1.80;;;1.40;;
75005;SDS011;63553;51.814;4.600;2023-03-01T03:11:27;1.40;;;1.30;;
75005;SDS011;63553;51.814;4.600;2023-03-01T03:13:53;1.50;;;1.40;;
75005;SDS011;63553;51.814;4.600;2023-03-01T03:16:18;1.50;;;1.40;;
75005;SDS011;63553;51.814;4.600;2023-03-01T03:18:44;1.45;;;1.35;;
75005;SDS011;63553;51.814;4.600;2023-03-01T03:21:11;1.37;;;1.30;;
75005;SDS011;63553;51.814;4.600;2023-03-01T03:23:37;1.30;;;1.20;;
75005;SDS011;63553;51.814;4.600;2023-03-01T03:26:04;1.50;;;1.40;;
75005;SDS011;63553;51.814;4.600;2023-03-01T03:28:30;1.30;;;1.20;;
75005;SDS011;63553;51.814;4.600;2023-03-01T03:30:57;1.45;;;1.35;;
75005;SDS011;63553;51.814;4.600;2023-03-01T03:33:23;1.38;;;1.27;;
75005;SDS011;63553;51.814;4.600;2023-03-01T03:35:49;1.33;;;1.23;;
75005;SDS011;63553;51.814;4.600;2023-03-01T03:38:16;1.40;;;1.30;;
75005;SDS011;63553;51.814;4.600;2023-03-01T03:43:34;1.50;;;1.15;;
75005;SDS011;63553;51.814;4.600;2023-03-01T03:46:02;1.40;;;1.30;;
75005;SDS011;63553;51.814;4.600;2023-03-01T03:48:31;1.20;;;1.20;;
75005;SDS011;63553;51.814;4.600;2023-03-01T03:50:58;2.03;;;1.23;;
75005;SDS011;63553;51.814;4.600;2023-03-01T03:53:24;2.00;;;1.40;;
75005;SDS011;63553;51.814;4.600;2023-03-01T03:55:50;1.33;;;1.23;;
75005;SDS011;63553;51.814;4.600;2023-03-01T03:58:16;1.50;;;1.40;;
75005;SDS011;63553;51.814;4.600;2023-03-01T04:00:44;1.40;;;1.30;;
75005;SDS011;63553;51.814;4.600;2023-03-01T04:03:11;1.40;;;1.30;;
75005;SDS011;63553;51.814;4.600;2023-03-01T04:05:38;1.10;;;1.10;;
75005;SDS011;63553;51.814;4.600;2023-03-01T04:08:05;1.50;;;1.40;;
75005;SDS011;63553;51.814;4.600;2023-03-01T04:10:35;1.45;;;1.40;;
75005;SDS011;63553;51.814;4.600;2023-03-01T04:13:03;1.98;;;1.33;;
75005;SDS011;63553;51.814;4.600;2023-03-01T04:15:29;1.40;;;1.30;;
75005;SDS011;63553;51.814;4.600;2023-03-01T04:17:56;1.50;;;1.40;;
75005;SDS011;63553;51.814;4.600;2023-03-01T04:20:22;1.50;;;1.40;;
75005;SDS011;63553;51.814;4.600;2023-03-01T04:22:56;1.70;;;1.60;;
75005;SDS011;63553;51.814;4.600;2023-03-01T04:25:23;1.30;;;1.20;;
75005;SDS011;63553;51.814;4.600;2023-03-01T04:27:49;1.83;;;1.65;;
75005;SDS011;63553;51.814;4.600;2023-03-01T04:30:14;1.50;;;1.40;;
75005;SDS011;63553;51.814;4.600;2023-03-01T04:32:40;1.38;;;1.27;;
75005;SDS011;63553;51.814;4.600;2023-03-01T04:35:05;1.50;;;1.40;;
75005;SDS011;63553;51.814;4.600;2023-03-01T04:37:31;1.55;;;1.45;;
75005;SDS011;63553;51.814;4.600;2023-03-01T04:39:56;1.50;;;1.40;;
75005;SDS011;63553;51.814;4.600;2023-03-01T04:42:22;1.30;;;1.20;;
75005;SDS011;63553;51.814;4.600;2023-03-01T04:44:48;1.48;;;1.38;;
75005;SDS011;63553;51.814;4.600;2023-03-01T04:47:16;1.52;;;1.40;;
75005;SDS011;63553;51.814;4.600;2023-03-01T04:49:41;2.15;;;1.20;;
75005;SDS011;63553;51.814;4.600;2023-03-01T04:52:07;1.60;;;1.50;;
75005;SDS011;63553;51.814;4.600;2023-03-01T04:54:33;1.50;;;1.40;;
75005;SDS011;63553;51.814;4.600;2023-03-01T04:56:59;1.50;;;1.40;;
75005;SDS011;63553;51.814;4.600;2023-03-01T04:59:25;1.50;;;1.40;;
75005;SDS011;63553;51.814;4.600;2023-03-01T05:01:51;1.30;;;1.20;;
75005;SDS011;63553;51.814;4.600;2023-03-01T05:04:17;1.50;;;1.40;;
75005;SDS011;63553;51.814;4.600;2023-03-01T05:06:42;1.25;;;1.20;;
75005;SDS011;63553;51.814;4.600;2023-03-01T05:09:08;1.35;;;1.25;;
75005;SDS011;63553;51.814;4.600;2023-03-01T05:11:34;1.60;;;1.50;;
75005;SDS011;63553;51.814;4.600;2023-03-01T05:14:07;1.10;;;1.10;;
75005;SDS011;63553;51.814;4.600;2023-03-01T05:16:33;1.45;;;1.23;;
75005;SDS011;63553;51.814;4.600;2023-03-01T05:19:01;1.33;;;1.25;;
75005;SDS011;63553;51.814;4.600;2023-03-01T05:21:36;1.30;;;1.30;;
75005;SDS011;63553;51.814;4.600;2023-03-01T05:24:22;1.15;;;1.13;;
75005;SDS011;63553;51.814;4.600;2023-03-01T05:26:47;1.42;;;1.33;;
75005;SDS011;63553;51.814;4.600;2023-03-01T05:29:13;1.60;;;1.50;;
75005;SDS011;63553;51.814;4.600;2023-03-01T05:31:38;1.60;;;1.50;;
75005;SDS011;63553;51.814;4.600;2023-03-01T05:34:03;1.40;;;1.30;;
75005;SDS011;63553;51.814;4.600;2023-03-01T05:36:29;1.60;;;1.40;;
75005;SDS011;63553;51.814;4.600;2023-03-01T05:38:55;1.40;;;1.30;;
75005;SDS011;63553;51.814;4.600;2023-03-01T05:41:20;2.08;;;1.88;;
75005;SDS011;63553;51.814;4.600;2023-03-01T05:43:46;1.70;;;1.60;;
75005;SDS011;63553;51.814;4.600;2023-03-01T05:46:11;14.60;;;1.90;;
75005;SDS011;63553;51.814;4.600;2023-03-01T05:48:38;7.78;;;1.88;;
75005;SDS011;63553;51.814;4.600;2023-03-01T05:51:03;3.28;;;1.80;;
75005;SDS011;63553;51.814;4.600;2023-03-01T05:53:29;8.27;;;2.42;;
75005;SDS011;63553;51.814;4.600;2023-03-01T05:55:54;3.70;;;1.73;;
75005;SDS011;63553;51.814;4.600;2023-03-01T05:58:20;3.47;;;1.73;;
75005;SDS011;63553;51.814;4.600;2023-03-01T06:00:46;4.00;;;1.50;;
75005;SDS011;63553;51.814;4.600;2023-03-01T06:03:13;2.92;;;1.67;;
75005;SDS011;63553;51.814;4.600;2023-03-01T06:05:39;2.72;;;1.30;;
75005;SDS011;63553;51.814;4.600;2023-03-01T06:08:05;2.95;;;1.30;;
75005;SDS011;63553;51.814;4.600;2023-03-01T06:10:31;2.50;;;1.48;;
75005;SDS011;63553;51.814;4.600;2023-03-01T06:12:56;7.07;;;2.50;;
75005;SDS011;63553;51.814;4.600;2023-03-01T06:15:22;2.80;;;1.60;;
75005;SDS011;63553;51.814;4.600;2023-03-01T06:17:48;3.05;;;1.42;;
75005;SDS011;63553;51.814;4.600;2023-03-01T06:20:15;2.50;;;1.40;;
75005;SDS011;63553;51.814;4.600;2023-03-01T06:22:45;4.03;;;1.48;;
75005;SDS011;63553;51.814;4.600;2023-03-01T06:25:12;2.60;;;1.42;;
75005;SDS011;63553;51.814;4.600;2023-03-01T06:27:38;13.40;;;1.40;;
75005;SDS011;63553;51.814;4.600;2023-03-01T06:30:04;1.48;;;1.38;;
75005;SDS011;63553;51.814;4.600;2023-03-01T06:32:30;1.58;;;1.48;;
75005;SDS011;63553;51.814;4.600;2023-03-01T06:34:56;2.50;;;1.52;;
75005;SDS011;63553;51.814;4.600;2023-03-01T06:37:23;9.70;;;1.65;;
75005;SDS011;63553;51.814;4.600;2023-03-01T06:39:49;5.70;;;1.50;;
75005;SDS011;63553;51.814;4.600;2023-03-01T06:42:14;3.83;;;1.35;;
75005;SDS011;63553;51.814;4.600;2023-03-01T06:44:39;4.57;;;1.70;;
75005;SDS011;63553;51.814;4.600;2023-03-01T06:47:05;2.83;;;1.70;;
75005;SDS011;63553;51.814;4.600;2023-03-01T06:49:30;4.13;;;1.70;;
75005;SDS011;63553;51.814;4.600;2023-03-01T06:51:56;5.73;;;2.20;;
75005;SDS011;63553;51.814;4.600;2023-03-01T06:54:21;7.43;;;1.80;;
75005;SDS011;63553;51.814;4.600;2023-03-01T06:56:47;4.82;;;1.92;;
75005;SDS011;63553;51.814;4.600;2023-03-01T06:59:13;12.85;;;3.10;;
75005;SDS011;63553;51.814;4.600;2023-03-01T07:01:39;6.32;;;2.83;;
75005;SDS011;63553;51.814;4.600;2023-03-01T07:04:04;16.70;;;4.15;;
75005;SDS011;63553;51.814;4.600;2023-03-01T07:06:33;11.77;;;3.87;;
75005;SDS011;63553;51.814;4.600;2023-03-01T07:08:58;5.57;;;2.80;;
75005;SDS011;63553;51.814;4.600;2023-03-01T07:11:24;8.25;;;3.38;;
75005;SDS011;63553;51.814;4.600;2023-03-01T07:13:49;6.80;;;2.30;;
75005;SDS011;63553;51.814;4.600;2023-03-01T07:16:14;4.47;;;2.37;;
75005;SDS011;63553;51.814;4.600;2023-03-01T07:18:40;4.63;;;2.00;;
75005;SDS011;63553;51.814;4.600;2023-03-01T07:21:06;11.52;;;9.70;;
75005;SDS011;63553;51.814;4.600;2023-03-01T07:23:34;13.10;;;8.68;;
75005;SDS011;63553;51.814;4.600;2023-03-01T07:26:00;14.95;;;10.40;;
75005;SDS011;63553;51.814;4.600;2023-03-01T07:28:26;15.63;;;10.13;;
75005;SDS011;63553;51.814;4.600;2023-03-01T07:30:52;15.02;;;10.07;;
75005;SDS011;63553;51.814;4.600;2023-03-01T07:33:17;16.58;;;9.95;;
75005;SDS011;63553;51.814;4.600;2023-03-01T07:35:43;14.23;;;9.13;;
75005;SDS011;63553;51.814;4.600;2023-03-01T07:38:08;16.83;;;9.95;;
75005;SDS011;63553;51.814;4.600;2023-03-01T07:40:33;18.13;;;10.57;;
75005;SDS011;63553;51.814;4.600;2023-03-01T07:42:59;19.40;;;10.82;;
75005;SDS011;63553;51.814;4.600;2023-03-01T07:45:26;16.05;;;9.48;;
75005;SDS011;63553;51.814;4.600;2023-03-01T07:47:52;15.65;;;8.52;;
75005;SDS011;63553;51.814;4.600;2023-03-01T07:50:18;14.48;;;9.13;;
75005;SDS011;63553;51.814;4.600;2023-03-01T07:52:49;14.75;;;9.57;;
75005;SDS011;63553;51.814;4.600;2023-03-01T07:55:15;15.05;;;9.60;;
75005;SDS011;63553;51.814;4.600;2023-03-01T07:57:41;14.93;;;7.53;;
75005;SDS011;63553;51.814;4.600;2023-03-01T08:00:07;5.55;;;4.00;;
75005;SDS011;63553;51.814;4.600;2023-03-01T08:02:33;12.02;;;3.47;;
75005;SDS011;63553;51.814;4.600;2023-03-01T08:04:58;5.97;;;3.23;;
75005;SDS011;63553;51.814;4.600;2023-03-01T08:07:24;3.15;;;2.38;;
75005;SDS011;63553;51.814;4.600;2023-03-01T08:09:49;2.75;;;2.28;;
75005;SDS011;63553;51.814;4.600;2023-03-01T08:12:14;5.83;;;2.23;;
75005;SDS011;63553;51.814;4.600;2023-03-01T08:14:41;2.88;;;2.30;;
75005;SDS011;63553;51.814;4.600;2023-03-01T08:17:07;2.85;;;2.20;;
75005;SDS011;63553;51.814;4.600;2023-03-01T08:19:32;5.10;;;2.40;;
75005;SDS011;63553;51.814;4.600;2023-03-01T08:21:59;2.67;;;2.35;;
75005;SDS011;63553;51.814;4.600;2023-03-01T08:24:26;2.85;;;2.17;;
75005;SDS011;63553;51.814;4.600;2023-03-01T08:26:52;2.90;;;2.33;;
75005;SDS011;63553;51.814;4.600;2023-03-01T08:29:17;2.35;;;2.15;;
75005;SDS011;63553;51.814;4.600;2023-03-01T08:31:42;4.43;;;2.70;;
75005;SDS011;63553;51.814;4.600;2023-03-01T08:34:09;3.22;;;2.63;;
75005;SDS011;63553;51.814;4.600;2023-03-01T08:36:38;2.33;;;2.10;;
75005;SDS011;63553;51.814;4.600;2023-03-01T08:39:06;3.40;;;2.80;;
75005;SDS011;63553;51.814;4.600;2023-03-01T08:41:32;3.45;;;3.15;;
75005;SDS011;63553;51.814;4.600;2023-03-01T08:43:58;3.28;;;2.60;;
75005;SDS011;63553;51.814;4.600;2023-03-01T08:46:31;3.67;;;2.35;;
75005;SDS011;63553;51.814;4.600;2023-03-01T08:48:58;4.38;;;2.67;;
75005;SDS011;63553;51.814;4.600;2023-03-01T08:51:24;2.83;;;2.10;;
75005;SDS011;63553;51.814;4.600;2023-03-01T08:53:51;4.93;;;2.78;;
75005;SDS011;63553;51.814;4.600;2023-03-01T08:56:17;3.03;;;2.42;;
75005;SDS011;63553;51.814;4.600;2023-03-01T08:58:44;2.90;;;2.70;;
75005;SDS011;63553;51.814;4.600;2023-03-01T09:01:11;3.55;;;2.30;;
75005;SDS011;63553;51.814;4.600;2023-03-01T09:03:38;3.15;;;2.38;;
75005;SDS011;63553;51.814;4.600;2023-03-01T09:06:04;3.10;;;2.80;;
75005;SDS011;63553;51.814;4.600;2023-03-01T09:08:34;3.95;;;2.53;;
75005;SDS011;63553;51.814;4.600;2023-03-01T09:11:04;2.53;;;2.33;;
75005;SDS011;63553;51.814;4.600;2023-03-01T09:13:33;2.30;;;2.10;;
75005;SDS011;63553;51.814;4.600;2023-03-01T09:16:00;2.40;;;2.20;;
75005;SDS011;63553;51.814;4.600;2023-03-01T09:18:27;3.83;;;2.70;;
75005;SDS011;63553;51.814;4.600;2023-03-01T09:20:53;2.70;;;2.47;;
75005;SDS011;63553;51.814;4.600;2023-03-01T09:23:25;2.80;;;2.60;;
75005;SDS011;63553;51.814;4.600;2023-03-01T09:25:50;3.00;;;2.70;;
75005;SDS011;63553;51.814;4.600;2023-03-01T09:28:15;3.17;;;2.70;;
75005;SDS011;63553;51.814;4.600;2023-03-01T09:30:41;3.77;;;2.80;;
75005;SDS011;63553;51.814;4.600;2023-03-01T09:33:06;3.53;;;2.60;;
75005;SDS011;63553;51.814;4.600;2023-03-01T09:35:31;2.73;;;2.43;;
75005;SDS011;63553;51.814;4.600;2023-03-01T09:37:57;3.27;;;2.97;;
75005;SDS011;63553;51.814;4.600;2023-03-01T09:40:23;2.90;;;2.70;;
75005;SDS011;63553;51.814;4.600;2023-03-01T09:45:24;3.50;;;2.70;;
75005;SDS011;63553;51.814;4.600;2023-03-01T09:47:52;4.32;;;2.35;;
75005;SDS011;63553;51.814;4.600;2023-03-01T09:50:20;2.65;;;2.45;;
75005;SDS011;63553;51.814;4.600;2023-03-01T09:53:07;14.25;;;3.05;;
75005;SDS011;63553;51.814;4.600;2023-03-01T09:55:46;13.55;;;3.47;;
75005;SDS011;63553;51.814;4.600;2023-03-01T10:00:59;15.70;;;3.67;;
75005;SDS011;63553;51.814;4.600;2023-03-01T10:03:52;14.40;;;3.03;;
75005;SDS011;63553;51.814;4.600;2023-03-01T10:06:23;8.90;;;3.08;;
75005;SDS011;63553;51.814;4.600;2023-03-01T10:09:05;11.10;;;3.15;;
75005;SDS011;63553;51.814;4.600;2023-03-01T10:11:39;6.53;;;2.83;;
75005;SDS011;63553;51.814;4.600;2023-03-01T10:14:15;7.90;;;2.95;;
75005;SDS011;63553;51.814;4.600;2023-03-01T10:16:57;9.00;;;2.72;;
75005;SDS011;63553;51.814;4.600;2023-03-01T10:19:32;6.50;;;2.55;;
75005;SDS011;63553;51.814;4.600;2023-03-01T10:22:05;6.10;;;2.60;;
75005;SDS011;63553;51.814;4.600;2023-03-01T10:24:39;4.78;;;2.25;;
75005;SDS011;63553;51.814;4.600;2023-03-01T10:27:09;4.22;;;2.60;;
75005;SDS011;63553;51.814;4.600;2023-03-01T10:29:46;3.25;;;2.25;;
75005;SDS011;63553;51.814;4.600;2023-03-01T10:32:21;6.20;;;2.58;;
75005;SDS011;63553;51.814;4.600;2023-03-01T10:34:47;4.38;;;2.30;;
75005;SDS011;63553;51.814;4.600;2023-03-01T10:39:56;3.15;;;2.70;;
75005;SDS011;63553;51.814;4.600;2023-03-01T10:42:39;2.88;;;2.30;;
75005;SDS011;63553;51.814;4.600;2023-03-01T10:48:08;3.50;;;2.63;;
75005;SDS011;63553;51.814;4.600;2023-03-01T10:50:38;3.40;;;2.50;;
75005;SDS011;63553;51.814;4.600;2023-03-01T10:53:08;2.40;;;2.20;;
75005;SDS011;63553;51.814;4.600;2023-03-01T10:55:46;2.30;;;2.10;;
75005;SDS011;63553;51.814;4.600;2023-03-01T11:03:12;2.47;;;1.90;;
75005;SDS011;63553;51.814;4.600;2023-03-01T11:05:50;3.70;;;2.00;;
75005;SDS011;63553;51.814;4.600;2023-03-01T11:08:29;2.10;;;1.95;;
75005;SDS011;63553;51.814;4.600;2023-03-01T11:13:49;3.35;;;1.92;;
75005;SDS011;63553;51.814;4.600;2023-03-01T11:16:15;2.20;;;2.00;;
75005;SDS011;63553;51.814;4.600;2023-03-01T11:19:03;2.30;;;2.10;;
75005;SDS011;63553;51.814;4.600;2023-03-01T11:22:03;2.75;;;2.00;;
75005;SDS011;63553;51.814;4.600;2023-03-01T11:27:08;3.55;;;2.20;;
75005;SDS011;63553;51.814;4.600;2023-03-01T11:29:44;2.95;;;1.95;;
75005;SDS011;63553;51.814;4.600;2023-03-01T11:32:16;2.28;;;2.08;;
75005;SDS011;63553;51.814;4.600;2023-03-01T11:37:21;2.70;;;1.80;;
75005;SDS011;63553;51.814;4.600;2023-03-01T11:39:55;2.53;;;2.17;;
75005;SDS011;63553;51.814;4.600;2023-03-01T11:42:52;2.08;;;1.92;;
75005;SDS011;63553;51.814;4.600;2023-03-01T11:45:20;2.70;;;1.60;;
75005;SDS011;63553;51.814;4.600;2023-03-01T11:50:29;1.87;;;1.77;;
75005;SDS011;63553;51.814;4.600;2023-03-01T12:06:48;3.15;;;1.85;;
75005;SDS011;63553;51.814;4.600;2023-03-01T12:09:59;2.45;;;1.70;;
75005;SDS011;63553;51.814;4.600;2023-03-01T12:12:44;2.10;;;1.85;;
75005;SDS011;63553;51.814;4.600;2023-03-01T12:18:12;2.90;;;1.80;;
75005;SDS011;63553;51.814;4.600;2023-03-01T12:21:05;3.60;;;2.00;;
75005;SDS011;63553;51.814;4.600;2023-03-01T12:26:31;2.22;;;2.13;;
75005;SDS011;63553;51.814;4.600;2023-03-01T12:29:18;2.08;;;1.88;;
75005;SDS011;63553;51.814;4.600;2023-03-01T12:31:56;4.28;;;1.95;;
75005;SDS011;63553;51.814;4.600;2023-03-01T12:39:55;2.40;;;2.10;;
75005;SDS011;63553;51.814;4.600;2023-03-01T12:50:48;2.10;;;1.90;;
75005;SDS011;63553;51.814;4.600;2023-03-01T12:53:25;1.95;;;1.85;;
75005;SDS011;63553;51.814;4.600;2023-03-01T12:55:54;3.67;;;1.92;;
75005;SDS011;63553;51.814;4.600;2023-03-01T12:59:26;2.75;;;2.00;;
75005;SDS011;63553;51.814;4.600;2023-03-01T13:01:36;2.22;;;1.98;;
75005;SDS011;63553;51.814;4.600;2023-03-01T13:20:17;3.20;;;2.13;;
75005;SDS011;63553;51.814;4.600;2023-03-01T13:25:12;4.00;;;2.33;;
75005;SDS011;63553;51.814;4.600;2023-03-01T13:27:43;5.43;;;2.60;;
75005;SDS011;63553;51.814;4.600;2023-03-01T13:33:33;4.15;;;2.50;;
75005;SDS011;63553;51.814;4.600;2023-03-01T13:36:11;3.35;;;2.50;;
75005;SDS011;63553;51.814;4.600;2023-03-01T13:39:01;6.72;;;2.72;;
75005;SDS011;63553;51.814;4.600;2023-03-01T13:41:52;3.10;;;2.20;;
75005;SDS011;63553;51.814;4.600;2023-03-01T13:44:35;3.45;;;2.65;;
75005;SDS011;63553;51.814;4.600;2023-03-01T13:50:15;2.95;;;2.55;;
75005;SDS011;63553;51.814;4.600;2023-03-01T13:52:43;4.93;;;2.42;;
75005;SDS011;63553;51.814;4.600;2023-03-01T13:58:04;3.40;;;2.08;;
75005;SDS011;63553;51.814;4.600;2023-03-01T14:00:39;3.90;;;2.65;;
75005;SDS011;63553;51.814;4.600;2023-03-01T14:03:10;2.00;;;1.90;;
75005;SDS011;63553;51.814;4.600;2023-03-01T14:05:41;3.05;;;2.40;;
75005;SDS011;63553;51.814;4.600;2023-03-01T14:08:18;3.28;;;2.30;;
75005;SDS011;63553;51.814;4.600;2023-03-01T14:14:02;3.47;;;2.10;;
75005;SDS011;63553;51.814;4.600;2023-03-01T14:19:41;2.30;;;2.10;;
75005;SDS011;63553;51.814;4.600;2023-03-01T14:24:56;4.47;;;2.25;;
75005;SDS011;63553;51.814;4.600;2023-03-01T14:27:24;2.67;;;2.17;;
75005;SDS011;63553;51.814;4.600;2023-03-01T14:29:59;3.20;;;2.50;;
75005;SDS011;63553;51.814;4.600;2023-03-01T14:32:30;2.83;;;2.45;;
75005;SDS011;63553;51.814;4.600;2023-03-01T14:34:57;3.05;;;2.20;;
75005;SDS011;63553;51.814;4.600;2023-03-01T14:37:28;2.70;;;1.90;;
75005;SDS011;63553;51.814;4.600;2023-03-01T14:39:56;2.05;;;1.92;;
75005;SDS011;63553;51.814;4.600;2023-03-01T14:42:23;3.55;;;2.35;;
75005;SDS011;63553;51.814;4.600;2023-03-01T14:44:52;3.78;;;2.30;;
75005;SDS011;63553;51.814;4.600;2023-03-01T14:47:23;3.80;;;2.13;;
75005;SDS011;63553;51.814;4.600;2023-03-01T14:50:03;3.35;;;2.03;;
75005;SDS011;63553;51.814;4.600;2023-03-01T14:52:37;2.90;;;2.30;;
75005;SDS011;63553;51.814;4.600;2023-03-01T14:55:06;2.90;;;2.22;;
75005;SDS011;63553;51.814;4.600;2023-03-01T14:57:42;2.17;;;1.98;;
75005;SDS011;63553;51.814;4.600;2023-03-01T15:00:10;2.35;;;2.15;;
75005;SDS011;63553;51.814;4.600;2023-03-01T15:02:48;2.85;;;2.25;;
75005;SDS011;63553;51.814;4.600;2023-03-01T15:05:14;4.00;;;2.38;;
75005;SDS011;63553;51.814;4.600;2023-03-01T15:07:43;2.75;;;2.17;;
75005;SDS011;63553;51.814;4.600;2023-03-01T15:10:19;3.45;;;2.63;;
75005;SDS011;63553;51.814;4.600;2023-03-01T15:12:47;3.20;;;2.35;;
75005;SDS011;63553;51.814;4.600;2023-03-01T15:15:20;3.15;;;2.40;;
75005;SDS011;63553;51.814;4.600;2023-03-01T15:17:58;3.85;;;2.28;;
75005;SDS011;63553;51.814;4.600;2023-03-01T15:20:31;3.13;;;2.30;;
75005;SDS011;63553;51.814;4.600;2023-03-01T15:23:01;2.65;;;2.30;;
75005;SDS011;63553;51.814;4.600;2023-03-01T15:25:28;3.03;;;2.17;;
75005;SDS011;63553;51.814;4.600;2023-03-01T15:27:55;2.63;;;2.40;;
75005;SDS011;63553;51.814;4.600;2023-03-01T15:33:16;3.25;;;2.35;;
75005;SDS011;63553;51.814;4.600;2023-03-01T15:35:53;2.28;;;2.05;;
75005;SDS011;63553;51.814;4.600;2023-03-01T15:40:55;2.88;;;2.40;;
75005;SDS011;63553;51.814;4.600;2023-03-01T15:46:16;2.38;;;2.17;;
75005;SDS011;63553;51.814;4.600;2023-03-01T15:48:48;2.28;;;2.08;;
75005;SDS011;63553;51.814;4.600;2023-03-01T15:51:17;4.18;;;2.50;;
75005;SDS011;63553;51.814;4.600;2023-03-01T15:53:49;3.75;;;2.40;;
75005;SDS011;63553;51.814;4.600;2023-03-01T15:56:16;3.10;;;2.47;;
75005;SDS011;63553;51.814;4.600;2023-03-01T15:58:42;2.38;;;2.17;;
75005;SDS011;63553;51.814;4.600;2023-03-01T16:01:14;2.37;;;2.17;;
75005;SDS011;63553;51.814;4.600;2023-03-01T16:03:41;4.18;;;2.33;;
75005;SDS011;63553;51.814;4.600;2023-03-01T16:06:10;3.55;;;2.55;;
75005;SDS011;63553;51.814;4.600;2023-03-01T16:08:37;7.75;;;2.50;;
75005;SDS011;63553;51.814;4.600;2023-03-01T16:11:03;4.78;;;2.60;;
75005;SDS011;63553;51.814;4.600;2023-03-01T16:13:30;6.20;;;2.22;;
75005;SDS011;63553;51.814;4.600;2023-03-01T16:15:56;9.10;;;2.50;;
75005;SDS011;63553;51.814;4.600;2023-03-01T16:18:22;6.25;;;3.03;;
75005;SDS011;63553;51.814;4.600;2023-03-01T16:20:47;7.20;;;2.70;;
75005;SDS011;63553;51.814;4.600;2023-03-01T16:23:14;2.97;;;2.55;;
75005;SDS011;63553;51.814;4.600;2023-03-01T16:25:40;3.90;;;2.38;;
75005;SDS011;63553;51.814;4.600;2023-03-01T16:28:05;5.85;;;2.90;;
75005;SDS011;63553;51.814;4.600;2023-03-01T16:30:35;2.90;;;2.60;;
75005;SDS011;63553;51.814;4.600;2023-03-01T16:33:01;2.67;;;2.22;;
75005;SDS011;63553;51.814;4.600;2023-03-01T16:35:26;4.40;;;2.80;;
75005;SDS011;63553;51.814;4.600;2023-03-01T16:37:52;5.63;;;2.67;;
75005;SDS011;63553;51.814;4.600;2023-03-01T16:40:25;5.95;;;3.15;;
75005;SDS011;63553;51.814;4.600;2023-03-01T16:42:53;5.45;;;3.20;;
75005;SDS011;63553;51.814;4.600;2023-03-01T16:45:24;9.50;;;5.32;;
75005;SDS011;63553;51.814;4.600;2023-03-01T16:47:49;6.13;;;4.65;;
75005;SDS011;63553;51.814;4.600;2023-03-01T16:50:15;8.73;;;6.27;;
75005;SDS011;63553;51.814;4.600;2023-03-01T16:52:40;15.43;;;6.07;;
75005;SDS011;63553;51.814;4.600;2023-03-01T16:55:06;6.03;;;5.23;;
75005;SDS011;63553;51.814;4.600;2023-03-01T16:57:35;8.80;;;6.55;;